Time;durP1;ratioP1;P1;durP2;ratioP2;P2;SDS_P1;SDS_P2;PMS_P1;PMS_P2;Temp;Humidity;BMP_temperature;BMP_pressure;BME280_temperature;BME280_humidity;BME280_pressure;Samples;Min_cycle;Max_cycle;Signal;HPM_P1;HPM_P2
2021/03/21 00:00:19;;;;;;;10.40;4.97;;;;;;;-0.42;69.58;99763.48;1755408;80;21215;-62
2021/03/21 00:02:46;;;;;;;13.67;5.00;;;;;;;-0.42;69.61;99764.80;1757165;80;21433;-62
2021/03/21 00:05:15;;;;;;;13.63;5.43;;;;;;;-0.42;69.64;99763.92;1757768;80;21135;-61
2021/03/21 00:07:43;;;;;;;9.10;4.37;;;;;;;-0.44;69.64;99756.47;1759837;80;21099;-61
2021/03/21 00:10:12;;;;;;;9.57;4.43;;;;;;;-0.47;69.69;99754.70;1731419;80;22156;-61
2021/03/21 00:12:39;;;;;;;11.87;4.80;;;;;;;-0.50;69.68;99760.44;1759099;80;21156;-61
2021/03/21 00:15:08;;;;;;;10.03;5.37;;;;;;;-0.53;69.70;99756.50;1757574;80;21138;-61
2021/03/21 00:17:35;;;;;;;9.80;4.47;;;;;;;-0.55;69.73;99756.50;1760655;80;21640;-61
2021/03/21 00:20:05;;;;;;;8.83;5.00;;;;;;;-0.57;69.70;99749.45;1761077;80;21148;-61
2021/03/21 00:22:32;;;;;;;8.57;4.77;;;;;;;-0.61;69.73;99745.08;1760350;80;21218;-61
2021/03/21 00:25:00;;;;;;;8.17;4.47;;;;;;;-0.64;69.79;99743.31;1759576;80;21133;-61
2021/03/21 00:27:27;;;;;;;9.97;5.47;;;;;;;-0.66;69.79;99737.58;1755560;80;21174;-60
2021/03/21 00:29:54;;;;;;;9.60;4.23;;;;;;;-0.69;69.81;99747.75;1753380;80;21511;-60
2021/03/21 00:32:21;;;;;;;10.33;4.40;;;;;;;-0.70;69.87;99742.46;1759813;80;21198;-60
2021/03/21 00:34:50;;;;;;;12.27;4.30;;;;;;;-0.72;69.91;99745.55;1760934;80;21725;-60
2021/03/21 00:37:18;;;;;;;6.80;4.60;;;;;;;-0.74;69.91;99744.22;1754412;80;21758;-60
2021/03/21 00:39:46;;;;;;;11.70;5.27;;;;;;;-0.76;69.91;99749.50;1759114;80;21204;-60
2021/03/21 00:42:13;;;;;;;11.37;4.73;;;;;;;-0.79;69.97;99742.05;1756642;80;21527;-60
2021/03/21 00:44:40;;;;;;;10.20;4.77;;;;;;;-0.81;69.99;99739.40;1752477;80;21222;-59
2021/03/21 00:47:08;;;;;;;12.40;5.57;;;;;;;-0.82;70.07;99736.31;1759433;80;22299;-59
2021/03/21 00:49:35;;;;;;;11.70;5.77;;;;;;;-0.85;70.16;99733.67;1758177;80;21216;-59
2021/03/21 00:52:04;;;;;;;17.53;7.23;;;;;;;-0.87;70.23;99735.47;1757214;80;21127;-58
2021/03/21 00:54:32;;;;;;;16.53;7.00;;;;;;;-0.90;70.27;99734.58;1762705;80;21178;-59
2021/03/21 00:56:59;;;;;;;13.83;7.77;;;;;;;-0.94;70.42;99737.69;1761415;80;21214;-58
2021/03/21 00:59:26;;;;;;;12.90;6.17;;;;;;;-0.95;70.49;99743.85;1756018;80;21309;-59
2021/03/21 01:01:53;;;;;;;15.50;6.60;;;;;;;-0.96;70.54;99735.48;1758391;80;21587;-59
2021/03/21 01:04:21;;;;;;;12.87;5.07;;;;;;;-0.98;70.61;99729.75;1762757;80;21376;-58
2021/03/21 01:06:48;;;;;;;10.00;4.73;;;;;;;-1.00;70.69;99727.11;1756910;80;21214;-58
2021/03/21 01:09:15;;;;;;;14.20;5.87;;;;;;;-1.00;70.75;99723.59;1759417;80;21605;-59
2021/03/21 01:11:43;;;;;;;9.03;4.83;;;;;;;-1.01;70.83;99727.11;1752404;80;21214;-58
2021/03/21 01:14:10;;;;;;;10.07;4.37;;;;;;;-1.03;70.91;99723.17;1760323;80;21433;-59
2021/03/21 01:16:40;;;;;;;12.33;4.93;;;;;;;-1.04;71.00;99724.05;1757187;80;21242;-59
2021/03/21 01:19:17;;;;;;;9.40;5.27;;;;;;;-1.05;71.07;99722.30;1757914;80;21188;-59
2021/03/21 01:21:44;;;;;;;9.97;5.07;;;;;;;-1.08;71.06;99726.25;1756157;80;21176;-59
2021/03/21 01:24:13;;;;;;;8.63;4.10;;;;;;;-1.11;71.10;99724.08;1756721;80;21220;-59
2021/03/21 01:26:41;;;;;;;6.63;3.70;;;;;;;-1.13;71.21;99729.80;1753257;80;21231;-58
2021/03/21 01:29:08;;;;;;;8.77;3.70;;;;;;;-1.14;71.30;99735.52;1756119;80;21173;-59
2021/03/21 01:31:36;;;;;;;6.80;3.30;;;;;;;-1.15;71.37;99729.79;1754428;80;21191;-58
2021/03/21 01:34:03;;;;;;;6.60;3.20;;;;;;;-1.18;71.37;99728.46;1759805;80;21113;-59
2021/03/21 01:36:36;;;;;;;7.73;3.13;;;;;;;-1.19;71.33;99731.98;1755247;80;21210;-58
2021/03/21 01:39:10;;;;;;;6.80;2.83;;;;;;;-1.19;71.44;99728.02;1757264;80;21462;-58
2021/03/21 01:41:39;;;;;;;8.13;3.60;;;;;;;-1.18;71.44;99724.50;1761780;80;21457;-58
2021/03/21 01:44:12;;;;;;;7.13;3.07;;;;;;;-1.20;71.48;99727.61;1754929;80;21180;-58
2021/03/21 01:46:52;;;;;;;6.20;3.27;;;;;;;-1.19;71.44;99724.06;1761126;80;21186;-58
2021/03/21 01:49:37;;;;;;;11.27;4.53;;;;;;;-1.21;71.48;99725.41;1759190;80;21374;-59
2021/03/21 01:52:07;;;;;;;9.45;4.25;;;;;;;-1.23;71.52;99720.56;1760314;80;21223;-57
2021/03/21 01:54:34;;;;;;;6.30;2.80;;;;;;;-1.25;71.59;99713.52;1761710;80;21189;-58
2021/03/21 01:57:02;;;;;;;6.37;2.93;;;;;;;-1.26;71.63;99720.55;1700169;80;21612;-58
2021/03/21 01:59:31;;;;;;;7.10;2.67;;;;;;;-1.27;71.69;99717.91;1755628;80;21648;-58
2021/03/21 02:02:01;;;;;;;9.40;3.53;;;;;;;-1.29;71.64;99719.26;1757940;80;21610;-58
2021/03/21 02:04:29;;;;;;;8.10;3.23;;;;;;;-1.30;71.65;99716.17;1754102;80;21256;-58
2021/03/21 02:07:34;;;;;;;5.33;1.87;;;;;;;-1.32;71.67;99710.01;1758282;80;21194;-58
2021/03/21 02:10:19;;;;;;;5.13;2.37;;;;;;;-1.33;71.73;99707.36;1753453;80;21080;-58
2021/03/21 02:13:07;;;;;;;;;;;;;;;-1.35;71.78;99707.80;1758486;80;21612;-56
2021/03/21 02:16:03;;;;;;;6.93;2.90;;;;;;;-1.37;71.82;99711.79;1763084;80;20260;-57
2021/03/21 02:19:13;;;;;;;6.55;2.30;;;;;;;-1.40;71.83;99705.18;1759630;80;21150;-57
2021/03/21 02:21:50;;;;;;;4.60;2.40;;;;;;;-1.41;71.86;99706.06;1757982;80;21194;-58
2021/03/21 02:24:35;;;;;;;5.03;2.67;;;;;;;-1.40;71.91;99699.02;1764329;80;21119;-58
2021/03/21 02:27:23;;;;;;;6.17;2.72;;;;;;;-1.41;71.94;99692.86;1750571;80;21255;-58
2021/03/21 02:30:16;;;;;;;4.30;2.37;;;;;;;-1.41;71.89;99695.94;1734712;80;22247;-58
2021/03/21 02:33:07;;;;;;;7.50;3.17;;;;;;;-1.45;71.96;99691.12;1754323;80;21219;-59
2021/03/21 02:35:49;;;;;;;6.83;3.43;;;;;;;-1.46;71.96;99689.36;1756448;80;21189;-58
2021/03/21 02:38:39;;;;;;;7.43;3.00;;;;;;;-1.46;72.00;99685.83;1755682;80;21246;-58
2021/03/21 02:41:36;;;;;;;6.77;3.47;;;;;;;-1.45;72.02;99681.00;1817524;76;26961;-58
2021/03/21 02:44:21;;;;;;;9.87;3.83;;;;;;;-1.52;72.09;99681.42;1809557;77;20997;-58
2021/03/21 02:46:56;;;;;;;6.30;3.63;;;;;;;-1.53;72.17;99681.86;1810155;77;21399;-57
2021/03/21 02:49:44;;;;;;;;;;;;;;;-1.55;72.18;99678.36;1783864;78;21573;-56
2021/03/21 02:52:22;;;;;;;8.20;4.53;;;;;;;-1.56;72.24;99673.96;1806309;77;20692;-57
2021/03/21 02:55:06;;;;;;;7.90;3.27;;;;;;;-1.58;72.32;99673.08;1806903;77;20967;-58
2021/03/21 02:57:38;;;;;;;7.90;2.47;;;;;;;-1.61;72.32;99666.47;1813275;77;21308;-58
2021/03/21 03:00:07;;;;;;;4.37;2.27;;;;;;;-1.62;72.37;99666.50;1806940;77;21184;-57
2021/03/21 03:02:51;;;;;;;5.50;2.43;;;;;;;-1.63;72.43;99665.61;1808208;77;21759;-57
2021/03/21 03:05:27;;;;;;;4.65;2.27;;;;;;;-1.63;72.37;99660.78;1813302;77;21106;-56
2021/03/21 03:08:02;;;;;;;4.03;2.40;;;;;;;-1.64;72.38;99661.66;1812624;77;21083;-56
2021/03/21 03:10:44;;;;;;;4.42;2.25;;;;;;;-1.65;72.44;99666.48;1748235;80;21118;-57
2021/03/21 03:13:17;;;;;;;3.20;1.57;;;;;;;-1.67;72.47;99658.56;1749242;80;22196;-56
2021/03/21 03:15:45;;;;;;;6.08;2.33;;;;;;;-1.67;72.46;99662.52;1771347;80;21152;-57
2021/03/21 03:18:50;;;;;;;5.77;2.27;;;;;;;-1.67;72.51;99660.33;1751465;79;21120;-56
2021/03/21 03:21:40;;;;;;;3.57;1.57;;;;;;;-1.66;72.55;99664.72;1751454;80;21144;-56
2021/03/21 03:24:35;;;;;;;3.87;1.70;;;;;;;-1.67;72.56;99665.16;1780307;79;21599;-56
2021/03/21 03:27:16;;;;;;;4.40;1.60;;;;;;;-1.69;72.56;99663.39;1772255;79;21625;-56
2021/03/21 03:29:55;;;;;;;5.27;1.63;;;;;;;-1.71;72.65;99658.58;1750226;80;21202;-57
2021/03/21 03:32:24;;;;;;;3.47;1.17;;;;;;;-1.72;72.75;99660.34;1744394;80;21220;-57
2021/03/21 03:34:54;;;;;;;3.67;1.70;;;;;;;-1.72;72.78;99659.02;1751132;80;21368;-57
2021/03/21 03:37:26;;;;;;;2.23;1.20;;;;;;;-1.72;72.76;99661.66;1770835;80;21208;-58
2021/03/21 03:39:53;;;;;;;2.60;1.27;;;;;;;-1.73;72.78;99655.94;1749323;81;22846;-57
2021/03/21 03:42:49;;;;;;;3.80;1.70;;;;;;;-1.74;72.83;99651.98;1784909;79;21242;-58
2021/03/21 03:46:02;;;;;;;3.00;1.70;;;;;;;-1.71;72.83;99642.31;1865901;75;27282;-57
2021/03/21 03:48:43;;;;;;;3.03;1.03;;;;;;;-1.75;72.82;99646.25;1746702;79;22271;-57
2021/03/21 03:51:34;;;;;;;2.17;1.40;;;;;;;-1.75;72.85;99643.62;1745962;80;21388;-56
2021/03/21 03:54:18;;;;;;;4.30;1.83;;;;;;;-1.75;72.84;99640.54;1816975;77;21174;-56
2021/03/21 03:56:57;;;;;;;5.03;2.37;;;;;;;-1.73;72.82;99642.75;1847151;77;21016;-56
2021/03/21 03:59:35;;;;;;;3.80;1.93;;;;;;;-1.72;72.76;99636.59;1847554;77;21209;-56
2021/03/21 04:02:12;;;;;;;7.43;2.87;;;;;;;-1.71;72.71;99641.43;1848440;77;21154;-57
2021/03/21 04:05:02;;;;;;;4.77;2.50;;;;;;;-1.75;72.70;99639.66;1844845;77;21631;-56
2021/03/21 04:07:59;;;;;;;6.60;1.93;;;;;;;-1.78;72.71;99632.61;1848954;77;21675;-57
2021/03/21 04:10:44;;;;;;;5.03;2.73;;;;;;;-1.78;72.75;99635.69;1823934;76;21162;-56
2021/03/21 04:13:23;;;;;;;4.40;1.83;;;;;;;-1.79;72.74;99630.89;1825535;76;21118;-57
2021/03/21 04:15:53;;;;;;;4.50;1.93;;;;;;;-1.80;72.75;99630.88;1825997;76;21410;-57
2021/03/21 04:18:48;;;;;;;4.93;2.03;;;;;;;-1.79;72.76;99636.60;1829183;76;21610;-56
2021/03/21 04:21:40;;;;;;;3.37;2.20;;;;;;;-1.79;72.76;99636.16;1822459;76;21174;-57
2021/03/21 04:24:28;;;;;;;4.37;3.17;;;;;;;-1.77;72.73;99632.17;1742721;80;21219;-57
2021/03/21 04:27:01;;;;;;;7.13;2.47;;;;;;;-1.75;72.72;99638.34;1736538;80;21126;-57
2021/03/21 04:29:36;;;;;;;7.60;3.13;;;;;;;-1.73;72.70;99636.15;1735888;80;21197;-56
2021/03/21 04:32:11;;;;;;;7.10;3.80;;;;;;;-1.70;72.68;99634.80;1738662;80;21318;-56
2021/03/21 04:34:39;;;;;;;7.87;4.17;;;;;;;-1.67;72.69;99636.13;1740209;80;21209;-57
2021/03/21 04:37:07;;;;;;;6.13;2.60;;;;;;;-1.63;72.67;99633.06;1702915;80;21542;-56
2021/03/21 04:39:34;;;;;;;7.17;3.40;;;;;;;-1.62;72.63;99634.83;1704622;80;21205;-56
2021/03/21 04:45:10;;;;;;;5.30;2.67;;;;;;;-1.54;72.63;99627.33;1865951;75;26894;-57
2021/03/21 04:48:00;;;;;;;6.57;3.47;;;;;;;-1.56;72.62;99630.84;1780955;78;21071;-57
2021/03/21 04:50:29;;;;;;;8.97;4.07;;;;;;;-1.54;72.67;99623.38;1780335;80;21373;-57
2021/03/21 04:53:33;;;;;;;5.23;3.77;;;;;;;-1.49;72.70;99631.70;1791894;78;21062;-57
2021/03/21 04:56:05;;;;;;;5.80;4.20;;;;;;;-1.44;72.72;99627.28;1775634;80;21196;-58
2021/03/21 04:58:42;;;;;;;7.80;3.27;;;;;;;-1.35;72.69;99633.42;1810146;78;21060;-58
2021/03/21 05:01:18;;;;;;;7.40;3.40;;;;;;;-1.28;72.66;99631.67;1781075;78;21180;-59
2021/03/21 05:04:06;;;;;;;8.17;3.67;;;;;;;-1.20;72.68;99625.92;1811562;78;20976;-60
2021/03/21 05:06:58;;;;;;;4.57;2.93;;;;;;;-1.03;72.67;99624.55;1811870;78;21047;-60
2021/03/21 05:09:35;;;;;;;5.37;3.40;;;;;;;-0.81;72.53;99628.84;1813638;78;21205;-59
2021/03/21 05:12:08;;;;;;;6.43;3.40;;;;;;;-0.57;72.18;99622.11;1743826;80;21112;-59
2021/03/21 05:14:43;;;;;;;6.43;3.87;;;;;;;-0.39;71.84;99612.74;1781837;79;21199;-59
2021/03/21 05:17:22;;;;;;;;;;;;;;;-0.21;71.48;99616.15;1783250;79;21406;-58
2021/03/21 05:20:21;;;;;;;8.33;3.47;;;;;;;-0.03;71.11;99614.25;1784789;79;20538;-59
2021/03/21 05:22:53;;;;;;;6.60;3.60;;;;;;;0.16;70.52;99615.43;1783986;79;21124;-59
2021/03/21 05:25:29;;;;;;;6.30;3.40;;;;;;;0.27;70.08;99615.74;1783228;79;21136;-58
2021/03/21 05:28:10;;;;;;;4.10;2.87;;;;;;;0.31;69.43;99613.95;1781214;79;21174;-59
2021/03/21 05:33:20;;;;;;;5.93;3.10;;;;;;;0.45;69.02;99608.52;1817839;76;26888;-59
2021/03/21 05:35:47;;;;;;;5.97;2.73;;;;;;;0.48;68.62;99609.38;1792193;77;20936;-60
2021/03/21 05:38:23;;;;;;;4.93;3.27;;;;;;;0.51;68.16;99609.33;1791108;78;21970;-59
2021/03/21 05:41:39;;;;;;;4.00;2.93;;;;;;;0.46;68.06;99620.87;1787471;79;21162;-59
2021/03/21 05:44:46;;;;;;;6.57;3.53;;;;;;;0.38;67.77;99615.66;1758701;80;21161;-60
2021/03/21 05:47:53;;;;;;;5.53;3.30;;;;;;;0.28;67.73;99615.30;1757530;80;21178;-60
2021/03/21 05:50:34;;;;;;;5.93;3.63;;;;;;;0.19;67.64;99620.67;1762470;79;21063;-59
2021/03/21 05:53:33;;;;;;;6.07;3.50;;;;;;;0.08;67.83;99616.82;1764668;79;21212;-60
2021/03/21 05:56:24;;;;;;;6.90;3.43;;;;;;;0.03;68.06;99621.70;1754772;80;21008;-58
2021/03/21 05:59:09;;;;;;;6.30;4.27;;;;;;;-0.01;68.12;99620.41;1760662;79;20996;-59
2021/03/21 06:01:50;;;;;;;9.85;4.67;;;;;;;-0.03;68.31;99612.93;1761134;79;21107;-59
2021/03/21 06:05:06;;;;;;;10.47;5.83;;;;;;;-0.03;68.53;99616.02;1759380;80;21613;-59
2021/03/21 06:08:03;;;;;;;9.38;4.33;;;;;;;-0.04;68.61;99618.23;1763736;80;21462;-59
2021/03/21 06:10:57;;;;;;;6.43;5.17;;;;;;;-0.05;68.74;99616.47;1765573;80;21143;-58
2021/03/21 06:13:39;;;;;;;8.77;5.37;;;;;;;0.05;68.93;99609.34;1761037;79;22020;-60
2021/03/21 06:16:40;;;;;;;7.10;5.50;;;;;;;0.15;68.81;99603.08;1761647;79;21095;-59
2021/03/21 06:19:42;;;;;;;8.00;4.87;;;;;;;0.23;68.77;99608.73;1764692;79;21091;-60
2021/03/21 06:22:24;;;;;;;8.03;5.20;;;;;;;0.31;68.44;99601.60;1764332;80;21205;-59
2021/03/21 06:25:19;;;;;;;9.00;5.57;;;;;;;0.36;68.33;99598.89;1728273;79;21481;-60
2021/03/21 06:28:31;;;;;;;;;;;;;;;0.45;68.00;99598.80;1765917;80;21192;-58
2021/03/21 06:31:30;;;;;;;11.17;6.33;;;;;;;0.49;67.58;99595.25;1757666;80;20283;-60
2021/03/21 06:34:24;;;;;;;10.60;6.10;;;;;;;0.57;67.63;99593.39;1762936;80;21564;-60
2021/03/21 06:37:50;;;;;;;8.13;6.53;;;;;;;0.66;66.98;99595.95;1760695;79;21381;-61
2021/03/21 06:40:26;;;;;;;;;;;;;;;0.69;66.50;99588.39;1727740;81;21027;-61
2021/03/21 06:43:48;;;;;;;10.97;7.23;;;;;;;0.73;66.54;99575.11;1726078;82;20591;-62
2021/03/21 06:46:50;;;;;;;14.00;8.43;;;;;;;0.83;66.36;99567.94;1767445;78;21185;-60
2021/03/21 06:50:04;;;;;;;14.17;8.27;;;;;;;0.82;65.08;99570.15;1704932;81;21828;-60
2021/03/21 06:53:10;;;;;;;13.57;7.97;;;;;;;0.65;64.76;99569.47;1743602;79;21751;-61
2021/03/21 06:55:58;;;;;;;13.27;8.07;;;;;;;0.54;65.17;99567.37;1767957;79;21155;-63
2021/03/21 06:59:10;;;;;;;12.10;8.40;;;;;;;0.54;64.89;99556.78;1760181;79;21867;-59
2021/03/21 07:01:57;;;;;;;14.47;9.47;;;;;;;0.58;64.54;99558.08;1759385;79;22296;-60
2021/03/21 07:04:42;;;;;;;12.47;9.60;;;;;;;0.61;64.58;99552.72;1764495;79;22009;-63
2021/03/21 07:07:43;;;;;;;18.30;9.80;;;;;;;0.69;64.42;99544.68;1742564;79;22215;-61
2021/03/21 07:10:45;;;;;;;11.83;7.73;;;;;;;0.79;63.94;99548.10;1743469;81;21819;-61
2021/03/21 07:14:10;;;;;;;11.30;8.17;;;;;;;0.90;63.79;99530.30;1764055;78;21182;-65
2021/03/21 07:17:05;;;;;;;11.77;7.93;;;;;;;1.05;63.34;99531.42;1726393;81;21209;-61
2021/03/21 07:19:58;;;;;;;13.23;9.17;;;;;;;1.24;61.63;99536.03;1743546;79;21205;-60
2021/03/21 07:23:10;;;;;;;13.40;8.67;;;;;;;1.32;60.59;99519.55;1692446;81;22045;-61
2021/03/21 07:26:03;;;;;;;10.33;7.93;;;;;;;1.36;60.67;99523.94;1759900;78;21206;-63
2021/03/21 07:28:57;;;;;;;14.07;9.57;;;;;;;1.38;60.11;99513.70;1718653;81;21554;-61
2021/03/21 07:31:55;;;;;;;14.43;9.50;;;;;;;1.36;59.91;99501.39;1717014;81;21173;-62
2021/03/21 07:34:36;;;;;;;13.77;7.67;;;;;;;1.33;58.80;99503.63;1743685;79;21214;-62
2021/03/21 07:37:32;;;;;;;11.43;8.43;;;;;;;1.25;57.57;99509.50;1740185;79;22519;-61
2021/03/21 07:40:26;;;;;;;;;;;;;;;1.12;57.85;99499.50;1752154;79;21169;-62
2021/03/21 07:43:08;;;;;;;11.70;7.87;;;;;;;1.00;57.67;99492.19;1763920;79;20668;-63
2021/03/21 07:46:06;;;;;;;13.80;9.53;;;;;;;0.99;57.99;99490.44;1728411;81;21131;-62
2021/03/21 07:49:22;;;;;;;13.23;9.30;;;;;;;1.02;57.62;99489.92;1712746;83;21499;-61
2021/03/21 07:52:10;;;;;;;13.70;8.60;;;;;;;1.08;57.64;99487.66;1762930;80;21689;-61
2021/03/21 07:55:03;;;;;;;12.87;8.77;;;;;;;1.10;56.97;99480.12;1763373;80;21483;-63
2021/03/21 07:58:02;;;;;;;13.33;8.40;;;;;;;1.07;56.88;99474.84;1766507;80;21182;-62
2021/03/21 08:00:29;;;;;;;11.33;8.50;;;;;;;1.07;56.97;99468.22;1767482;80;21186;-64
2021/03/21 08:03:23;;;;;;;12.80;8.07;;;;;;;1.10;56.70;99463.33;1770086;80;21240;-64
2021/03/21 08:05:55;;;;;;;11.63;8.10;;;;;;;1.10;57.03;99464.66;1763884;80;22128;-61
2021/03/21 08:08:26;;;;;;;10.57;7.33;;;;;;;1.12;56.85;99451.78;1765539;80;21218;-62
2021/03/21 08:11:01;;;;;;;9.97;7.67;;;;;;;1.14;56.48;99443.38;1762771;80;21174;-62
2021/03/21 08:14:29;;;;;;;9.27;7.47;;;;;;;1.26;56.29;99425.08;1823132;76;27273;-62
2021/03/21 08:17:02;;;;;;;14.67;9.07;;;;;;;1.33;56.46;99424.52;1794731;77;21498;-62
2021/03/21 08:19:33;;;;;;;11.63;7.65;;;;;;;1.47;55.36;99438.42;1792014;79;21429;-62
2021/03/21 08:22:03;;;;;;;10.53;6.60;;;;;;;1.55;54.57;99423.70;1787378;79;21150;-64
2021/03/21 08:24:33;;;;;;;9.27;5.60;;;;;;;1.63;53.90;99424.44;1789201;79;21233;-63
2021/03/21 08:27:04;;;;;;;12.33;7.10;;;;;;;1.69;52.83;99417.27;1791075;77;21203;-63
2021/03/21 08:29:40;;;;;;;9.33;5.83;;;;;;;1.67;52.76;99409.78;1759461;79;21186;-61
2021/03/21 08:32:14;;;;;;;10.70;6.40;;;;;;;1.74;52.49;99410.09;1864284;75;26793;-61
2021/03/21 08:34:46;;;;;;;9.67;6.10;;;;;;;1.78;52.23;99405.62;1839055;77;21040;-58
2021/03/21 08:37:22;;;;;;;8.83;5.90;;;;;;;1.88;52.13;99404.06;1841527;77;21383;-62
2021/03/21 08:39:53;;;;;;;9.10;5.83;;;;;;;1.97;51.95;99394.17;1845445;77;20949;-60
2021/03/21 08:42:34;;;;;;;7.57;5.30;;;;;;;2.04;51.92;99393.18;1786827;78;21005;-61
2021/03/21 08:45:09;;;;;;;8.90;6.67;;;;;;;2.13;52.23;99385.88;1749645;80;21009;-59
2021/03/21 08:47:36;;;;;;;8.73;5.60;;;;;;;2.22;52.29;99377.73;1749008;80;22140;-62
2021/03/21 08:50:06;;;;;;;7.47;5.10;;;;;;;2.33;51.44;99373.98;1746513;80;22225;-64
2021/03/21 08:52:44;;;;;;;8.10;4.80;;;;;;;2.36;50.57;99378.79;1769659;78;21004;-60
2021/03/21 08:55:31;;;;;;;5.10;3.87;;;;;;;2.38;50.76;99366.81;1748607;80;21159;-64
2021/03/21 08:58:00;;;;;;;6.47;4.87;;;;;;;2.49;50.21;99358.13;1767031;78;22235;-61
2021/03/21 09:00:32;;;;;;;5.33;4.27;;;;;;;2.58;49.75;99365.45;1770043;78;22746;-60
2021/03/21 09:03:00;;;;;;;10.07;5.37;;;;;;;2.63;49.12;99348.97;1755776;80;21467;-59
2021/03/21 09:05:28;;;;;;;10.00;5.37;;;;;;;2.68;49.20;99345.31;1755317;80;21458;-63
2021/03/21 09:08:03;;;;;;;7.63;5.07;;;;;;;2.75;49.16;99337.61;1773312;78;21227;-61
2021/03/21 09:10:36;;;;;;;9.30;5.20;;;;;;;2.81;48.74;99355.61;1752388;80;21099;-61
2021/03/21 09:13:15;;;;;;;7.33;5.53;;;;;;;2.85;48.37;99349.78;1744211;80;21413;-60
2021/03/21 09:15:44;;;;;;;10.70;5.53;;;;;;;2.85;48.52;99346.67;1747908;80;21151;-61
2021/03/21 09:18:25;;;;;;;6.60;5.03;;;;;;;2.83;47.74;99346.28;1725723;80;21139;-60
2021/03/21 09:20:57;;;;;;;6.43;4.53;;;;;;;2.82;48.32;99336.55;1742380;80;21009;-61
2021/03/21 09:23:44;;;;;;;6.73;4.37;;;;;;;2.82;47.56;99333.45;1718933;80;21085;-63
2021/03/21 09:26:20;;;;;;;5.13;3.87;;;;;;;2.84;47.94;99325.44;1743144;80;21514;-62
2021/03/21 09:28:58;;;;;;;7.20;4.13;;;;;;;2.92;48.05;99317.70;1736679;80;21326;-61
2021/03/21 09:31:25;;;;;;;6.40;4.53;;;;;;;3.02;47.19;99321.89;1741205;80;21230;-62
2021/03/21 09:34:05;;;;;;;7.00;4.33;;;;;;;3.07;47.38;99316.44;1744983;80;21208;-59
2021/03/21 09:36:46;;;;;;;7.63;4.60;;;;;;;3.14;46.95;99307.87;1781457;79;22163;-62
2021/03/21 09:39:30;;;;;;;9.67;3.67;;;;;;;3.18;47.01;99308.20;1774894;79;21217;-61
2021/03/21 09:41:57;;;;;;;6.23;4.80;;;;;;;3.22;46.38;99309.88;1755720;80;21407;-62
2021/03/21 09:44:39;;;;;;;8.13;4.87;;;;;;;3.21;46.48;99309.00;1780151;78;21587;-59
2021/03/21 09:47:44;;;;;;;5.33;4.17;;;;;;;3.22;46.69;99297.45;1761113;80;21127;-61
2021/03/21 09:50:36;;;;;;;7.57;5.07;;;;;;;3.29;46.84;99296.83;1748328;80;21109;-64
2021/03/21 09:53:34;;;;;;;6.67;4.50;;;;;;;3.33;47.52;99303.34;1755223;80;21170;-61
2021/03/21 09:56:10;;;;;;;7.03;4.27;;;;;;;3.39;46.84;99291.24;1695866;82;21413;-62
2021/03/21 09:58:43;;;;;;;7.13;5.20;;;;;;;3.42;47.07;99277.83;1731217;80;22741;-59
2021/03/21 10:01:38;;;;;;;5.57;4.60;;;;;;;3.49;47.07;99271.88;1758917;80;21213;-59
2021/03/21 10:04:37;;;;;;;5.63;3.30;;;;;;;3.56;46.81;99271.28;1775784;78;21260;-62
2021/03/21 10:07:12;;;;;;;4.33;2.93;;;;;;;3.64;46.60;99260.84;1783809;79;21178;-59
2021/03/21 10:09:39;;;;;;;5.77;3.47;;;;;;;3.68;45.85;99262.48;1779938;79;21223;-60
2021/03/21 10:12:08;;;;;;;6.37;3.70;;;;;;;3.61;45.76;99270.69;1758240;80;22406;-63
2021/03/21 10:14:40;;;;;;;3.87;2.90;;;;;;;3.53;45.54;99258.05;1782188;78;21385;-61
2021/03/21 10:17:25;;;;;;;4.07;2.83;;;;;;;3.52;46.31;99253.64;1780217;78;21183;-59
2021/03/21 10:19:55;;;;;;;4.33;3.65;;;;;;;3.54;45.83;99250.03;1778636;78;21182;-60
2021/03/21 10:22:33;;;;;;;4.80;2.83;;;;;;;3.51;45.72;99238.13;1747935;80;21380;-60
2021/03/21 10:25:12;;;;;;;7.33;3.50;;;;;;;3.51;46.29;99247.44;1748424;80;21132;-64
2021/03/21 10:27:48;;;;;;;5.97;2.57;;;;;;;3.59;46.21;99235.25;1748832;80;21136;-62
2021/03/21 10:30:31;;;;;;;3.63;2.90;;;;;;;3.68;46.29;99239.86;1748742;80;21497;-62
2021/03/21 10:33:05;;;;;;;5.07;3.77;;;;;;;3.74;45.56;99242.83;1745924;80;21236;-61
2021/03/21 10:35:47;;;;;;;7.80;3.90;;;;;;;3.68;45.20;99238.98;1759724;80;21198;-61
2021/03/21 10:38:45;;;;;;;4.40;3.30;;;;;;;3.63;45.23;99242.25;1756865;80;21166;-61
2021/03/21 10:41:52;;;;;;;5.20;3.47;;;;;;;3.56;45.67;99242.88;1755043;80;21573;-59
2021/03/21 10:44:32;;;;;;;5.50;3.90;;;;;;;3.52;45.81;99221.25;1774289;78;22321;-61
2021/03/21 10:47:07;;;;;;;4.53;3.50;;;;;;;3.51;45.20;99211.52;1739988;80;21134;-62
2021/03/21 10:49:52;;;;;;;6.40;3.50;;;;;;;3.48;45.04;99202.31;1780646;78;21380;-63
2021/03/21 10:52:35;;;;;;;7.87;3.87;;;;;;;3.47;45.61;99206.34;1773006;79;26599;-60
2021/03/21 10:55:21;;;;;;;6.27;3.53;;;;;;;3.52;45.14;99203.95;1745445;80;21192;-60
2021/03/21 10:57:48;;;;;;;4.05;2.92;;;;;;;3.56;45.13;99208.29;1752951;80;28141;-61
2021/03/21 11:00:32;;;;;;;5.53;4.20;;;;;;;3.61;44.67;99203.69;1746598;80;21797;-60
2021/03/21 11:03:10;;;;;;;5.93;3.37;;;;;;;3.62;44.86;99197.45;1753284;80;21455;-63
2021/03/21 11:05:45;;;;;;;4.67;2.83;;;;;;;3.66;44.98;99204.88;1747574;80;21158;-61
2021/03/21 11:08:18;;;;;;;2.53;2.33;;;;;;;3.68;44.43;99187.95;1755803;80;21224;-63
2021/03/21 11:10:49;;;;;;;4.23;2.93;;;;;;;3.65;43.70;99203.16;1753842;80;21182;-61
2021/03/21 11:13:28;;;;;;;4.93;3.20;;;;;;;3.56;43.91;99185.67;1746934;80;21166;-62
2021/03/21 11:15:57;;;;;;;5.17;2.30;;;;;;;3.55;44.18;99172.41;1759708;80;21194;-61
2021/03/21 11:18:30;;;;;;;6.67;3.27;;;;;;;3.60;44.36;99174.00;1759049;80;21149;-59
2021/03/21 11:21:20;;;;;;;5.30;3.27;;;;;;;3.64;43.82;99172.13;1755797;79;21221;-62
2021/03/21 11:23:59;;;;;;;4.80;3.53;;;;;;;3.65;43.96;99164.57;1750452;80;21189;-59
2021/03/21 11:26:34;;;;;;;4.80;3.40;;;;;;;3.67;44.01;99164.04;1756949;80;21186;-64
2021/03/21 11:29:12;;;;;;;3.97;2.90;;;;;;;3.72;43.72;99157.68;1758917;80;21407;-64
2021/03/21 11:31:54;;;;;;;4.10;3.10;;;;;;;3.73;43.21;99143.45;1771873;78;21618;-61
2021/03/21 11:34:24;;;;;;;3.73;3.00;;;;;;;3.70;43.42;99126.70;1751519;80;21427;-61
2021/03/21 11:37:21;;;;;;;5.20;2.83;;;;;;;3.70;43.42;99124.91;1746039;80;21106;-60
2021/03/21 11:40:00;;;;;;;6.30;2.90;;;;;;;3.71;43.68;99118.67;1747605;80;21112;-62
2021/03/21 11:42:36;;;;;;;3.90;3.00;;;;;;;3.82;44.11;99125.46;1748075;80;21386;-60
2021/03/21 11:45:21;;;;;;;7.83;3.53;;;;;;;3.91;43.80;99120.73;1749787;80;20988;-61
2021/03/21 11:47:56;;;;;;;4.67;2.17;;;;;;;4.00;44.46;99112.41;1743134;80;22936;-60
2021/03/21 11:50:32;;;;;;;3.47;2.17;;;;;;;4.17;44.30;99115.86;1741046;80;21131;-61
2021/03/21 11:53:00;;;;;;;3.03;2.50;;;;;;;4.25;43.65;99117.85;1745451;80;21147;-61
2021/03/21 11:55:30;;;;;;;6.27;3.20;;;;;;;4.32;43.50;99110.52;1721280;80;21214;-62
2021/03/21 11:58:22;;;;;;;4.73;2.63;;;;;;;4.33;42.93;99109.60;1749622;80;21210;-59
2021/03/21 12:01:02;;;;;;;3.90;2.87;;;;;;;4.32;43.33;99100.73;1738435;81;21522;-61
2021/03/21 12:03:50;;;;;;;3.13;2.00;;;;;;;4.30;43.44;99095.04;1745584;80;22321;-61
2021/03/21 12:06:41;;;;;;;4.10;3.13;;;;;;;4.32;43.22;99084.75;1748549;80;21304;-59
2021/03/21 12:09:34;;;;;;;2.87;2.43;;;;;;;4.34;43.55;99088.70;1749483;80;21401;-60
2021/03/21 12:12:24;;;;;;;3.93;2.47;;;;;;;4.32;43.52;99083.42;1755245;79;21500;-58
2021/03/21 12:14:52;;;;;;;3.87;2.40;;;;;;;4.28;43.86;99077.77;1722133;82;21137;-62
2021/03/21 12:17:27;;;;;;;7.90;2.93;;;;;;;4.24;43.28;99084.14;1744737;80;21138;-61
2021/03/21 12:19:57;;;;;;;4.50;2.23;;;;;;;4.21;43.15;99079.36;1744043;80;21970;-62
2021/03/21 12:22:36;;;;;;;2.47;2.00;;;;;;;4.15;43.00;99072.45;1763198;79;21418;-60
2021/03/21 12:25:27;;;;;;;3.17;2.10;;;;;;;4.11;43.34;99081.45;1743058;80;21165;-62
2021/03/21 12:28:07;;;;;;;4.57;2.40;;;;;;;4.12;43.39;99063.22;1745471;80;21200;-62
2021/03/21 12:30:47;;;;;;;5.20;2.97;;;;;;;4.14;43.69;99072.03;1744204;80;21181;-62
2021/03/21 12:33:31;;;;;;;4.40;2.30;;;;;;;4.15;43.45;99075.12;1761874;79;21254;-62
2021/03/21 12:36:20;;;;;;;3.63;2.17;;;;;;;4.13;43.04;99068.96;1714056;82;21396;-60
2021/03/21 12:38:54;;;;;;;3.00;1.93;;;;;;;4.11;43.82;99070.80;1757387;80;21915;-63
2021/03/21 12:41:41;;;;;;;3.80;2.47;;;;;;;4.15;43.75;99064.00;1714954;81;22376;-59
2021/03/21 12:44:19;;;;;;;5.77;2.63;;;;;;;4.21;43.88;99056.26;1740024;80;21177;-60
2021/03/21 12:47:13;;;;;;;3.30;2.57;;;;;;;4.30;44.19;99059.07;1741059;80;21191;-61